Time;durP1;ratioP1;P1;durP2;ratioP2;P2;SDS_P1;SDS_P2;PMS_P1;PMS_P2;Temp;Humidity;BMP_temperature;BMP_pressure;BME280_temperature;BME280_humidity;BME280_pressure;Samples;Min_cycle;Max_cycle;Signal;HPM_P1;HPM_P2
2022/10/21 00:00:34;;;;;;;8.05;5.72;;;;;;;;;;5074044;28;20052;-71
2022/10/21 00:03:00;;;;;;;7.45;5.07;;;;;;;;;;5074156;28;20049;-71
2022/10/21 00:05:27;;;;;;;6.28;5.07;;;;;;;;;;5074021;28;20056;-71
2022/10/21 00:07:53;;;;;;;6.28;5.03;;;;;;;;;;5073527;28;20488;-71
2022/10/21 00:10:19;;;;;;;8.20;5.60;;;;;;;;;;5072785;28;20045;-71
2022/10/21 00:12:46;;;;;;;7.53;5.50;;;;;;;;;;5069158;28;20074;-71
2022/10/21 00:15:12;;;;;;;7.15;5.50;;;;;;;;;;5074139;28;20050;-71
2022/10/21 00:17:39;;;;;;;8.43;5.32;;;;;;;;;;5073983;28;20053;-71
2022/10/21 00:20:07;;;;;;;7.00;5.38;;;;;;;;;;5073557;28;20045;-71
2022/10/21 00:22:34;;;;;;;8.57;5.65;;;;;;;;;;5073858;28;20044;-71
2022/10/21 00:25:01;;;;;;;11.73;5.45;;;;;;;;;;5073845;28;20118;-71
2022/10/21 00:27:27;;;;;;;7.22;5.07;;;;;;;;;;5073975;28;20051;-71
2022/10/21 00:29:53;;;;;;;6.88;5.38;;;;;;;;;;5073936;28;20052;-71
2022/10/21 00:32:20;;;;;;;9.55;4.95;;;;;;;;;;5073888;28;20049;-71
2022/10/21 00:34:47;;;;;;;7.75;4.97;;;;;;;;;;5073614;28;20079;-71
2022/10/21 00:37:14;;;;;;;7.00;5.00;;;;;;;;;;5073214;28;20055;-71
2022/10/21 00:39:40;;;;;;;7.07;5.20;;;;;;;;;;5073529;28;20050;-71
2022/10/21 00:42:11;;;;;;;6.53;4.80;;;;;;;;;;5073654;28;20052;-71
2022/10/21 00:44:39;;;;;;;8.50;5.15;;;;;;;;;;5073673;28;20059;-71
2022/10/21 00:47:09;;;;;;;9.63;4.53;;;;;;;;;;5073213;28;20492;-71
2022/10/21 00:49:40;;;;;;;5.45;4.18;;;;;;;;;;5073409;28;20049;-70
2022/10/21 00:52:12;;;;;;;8.57;3.92;;;;;;;;;;5073046;28;20048;-71
2022/10/21 00:54:38;;;;;;;8.52;3.53;;;;;;;;;;5073387;28;20141;-71
2022/10/21 00:57:05;;;;;;;6.90;3.28;;;;;;;;;;5073321;28;20051;-71
2022/10/21 00:59:37;;;;;;;5.20;3.00;;;;;;;;;;5073281;28;20044;-71
2022/10/21 01:02:04;;;;;;;8.15;3.83;;;;;;;;;;5073001;28;20051;-71
2022/10/21 01:04:30;;;;;;;5.93;2.97;;;;;;;;;;5073169;28;20036;-70
2022/10/21 01:06:58;;;;;;;7.30;3.43;;;;;;;;;;5072837;28;20054;-71
2022/10/21 01:09:25;;;;;;;5.63;3.10;;;;;;;;;;5073018;28;20040;-70
2022/10/21 01:11:51;;;;;;;3.92;3.10;;;;;;;;;;5073009;28;20055;-71
2022/10/21 01:14:18;;;;;;;4.80;3.00;;;;;;;;;;5072669;28;20044;-71
2022/10/21 01:16:49;;;;;;;6.05;3.22;;;;;;;;;;5072985;28;20053;-71
2022/10/21 01:19:30;;;;;;;3.45;3.15;;;;;;;;;;5072312;28;20127;-71
2022/10/21 01:22:16;;;;;;;3.95;3.00;;;;;;;;;;5072908;28;20052;-71
2022/10/21 01:25:01;;;;;;;5.97;3.13;;;;;;;;;;5072789;28;20412;-71
2022/10/21 01:27:45;;;;;;;8.00;3.75;;;;;;;;;;5072480;28;20044;-71
2022/10/21 01:30:30;;;;;;;7.40;3.47;;;;;;;;;;5072857;28;20395;-70
2022/10/21 01:33:05;;;;;;;4.88;3.20;;;;;;;;;;5072634;28;20044;-71
2022/10/21 01:35:35;;;;;;;5.38;2.75;;;;;;;;;;5067973;28;20040;-71
2022/10/21 01:38:17;;;;;;;5.68;3.00;;;;;;;;;;5063360;28;20056;-71
2022/10/21 01:41:02;;;;;;;6.10;3.25;;;;;;;;;;5072253;28;20052;-71
2022/10/21 01:43:33;;;;;;;5.40;2.97;;;;;;;;;;5072326;28;20059;-71
2022/10/21 01:46:02;;;;;;;10.52;3.40;;;;;;;;;;5072113;28;20064;-71
2022/10/21 01:48:34;;;;;;;6.70;3.50;;;;;;;;;;5072368;28;20052;-71
2022/10/21 01:51:02;;;;;;;8.20;4.50;;;;;;;;;;5072326;28;20070;-71
2022/10/21 01:53:31;;;;;;;9.40;4.50;;;;;;;;;;5072170;28;20052;-71
2022/10/21 01:55:58;;;;;;;8.10;4.68;;;;;;;;;;5071925;28;20492;-71
2022/10/21 01:58:27;;;;;;;9.43;5.28;;;;;;;;;;5071954;28;20139;-71
2022/10/21 02:00:55;;;;;;;7.47;5.20;;;;;;;;;;5072086;28;20490;-71
2022/10/21 02:03:24;;;;;;;7.07;4.95;;;;;;;;;;5072160;28;20105;-71
2022/10/21 02:05:51;;;;;;;9.30;5.07;;;;;;;;;;5071860;28;20059;-71
2022/10/21 02:08:17;;;;;;;8.07;5.40;;;;;;;;;;5072033;28;20057;-71
2022/10/21 02:10:45;;;;;;;10.00;6.00;;;;;;;;;;5071759;28;20048;-71
2022/10/21 02:13:15;;;;;;;13.93;6.47;;;;;;;;;;5071728;28;20407;-71
2022/10/21 02:15:42;;;;;;;13.05;7.07;;;;;;;;;;5071034;28;20442;-70
2022/10/21 02:18:16;;;;;;;9.77;7.65;;;;;;;;;;5071640;28;20055;-71
2022/10/21 02:20:43;;;;;;;11.90;8.35;;;;;;;;;;5072078;28;20048;-71
2022/10/21 02:23:14;;;;;;;13.23;8.73;;;;;;;;;;5071716;28;20052;-71
2022/10/21 02:25:43;;;;;;;12.75;9.32;;;;;;;;;;5071884;28;20044;-71
2022/10/21 02:28:10;;;;;;;11.80;9.63;;;;;;;;;;5071938;28;20052;-71
2022/10/21 02:31:02;;;;;;;13.60;10.55;;;;;;;;;;5071373;28;20047;-70
2022/10/21 02:33:35;;;;;;;18.05;12.88;;;;;;;;;;5055704;28;20500;-70
2022/10/21 02:36:10;;;;;;;20.40;13.13;;;;;;;;;;5071539;28;20048;-71
2022/10/21 02:38:41;;;;;;;19.75;12.93;;;;;;;;;;5071701;28;20060;-71
2022/10/21 02:41:09;;;;;;;17.48;12.93;;;;;;;;;;5071538;28;20057;-71
2022/10/21 02:43:35;;;;;;;;;;;;;;;;;;5071996;28;20048;-71
2022/10/21 02:46:06;;;;;;;19.35;13.32;;;;;;;;;;5071613;28;19924;-71
2022/10/21 02:48:33;;;;;;;16.55;13.25;;;;;;;;;;5071433;28;20052;-71
2022/10/21 02:51:01;;;;;;;16.30;12.73;;;;;;;;;;5071654;28;20487;-71
2022/10/21 02:53:27;;;;;;;19.88;14.35;;;;;;;;;;5071699;28;20291;-71
2022/10/21 02:55:54;;;;;;;18.75;13.55;;;;;;;;;;5071478;28;20056;-71
2022/10/21 02:58:20;;;;;;;19.10;13.60;;;;;;;;;;5071329;28;20054;-71
2022/10/21 03:00:46;;;;;;;19.48;12.77;;;;;;;;;;5071496;28;20052;-71
2022/10/21 03:03:13;;;;;;;18.30;13.25;;;;;;;;;;5071241;28;20463;-71
2022/10/21 03:05:39;;;;;;;18.17;12.95;;;;;;;;;;5064685;28;20047;-71
2022/10/21 03:08:05;;;;;;;18.75;13.30;;;;;;;;;;5071456;28;20044;-71
2022/10/21 03:10:32;;;;;;;17.10;12.70;;;;;;;;;;5071120;28;20509;-71
2022/10/21 03:12:58;;;;;;;19.25;12.63;;;;;;;;;;5071098;28;20514;-71
2022/10/21 03:15:25;;;;;;;21.02;12.75;;;;;;;;;;5071264;28;20040;-71
2022/10/21 03:17:51;;;;;;;19.40;12.85;;;;;;;;;;5071145;28;20045;-71
2022/10/21 03:20:18;;;;;;;17.77;11.63;;;;;;;;;;5043421;28;20048;-71
2022/10/21 03:22:44;;;;;;;18.35;11.95;;;;;;;;;;5071307;28;20056;-71
2022/10/21 03:25:11;;;;;;;15.93;12.20;;;;;;;;;;5071171;28;20041;-71
2022/10/21 03:27:38;;;;;;;17.13;12.38;;;;;;;;;;5071108;28;20208;-71
2022/10/21 03:30:05;;;;;;;16.02;12.45;;;;;;;;;;5071301;28;20048;-70
2022/10/21 03:32:31;;;;;;;19.20;12.63;;;;;;;;;;5071274;28;20377;-70
2022/10/21 03:34:58;;;;;;;17.33;12.13;;;;;;;;;;5071088;28;20048;-71
2022/10/21 03:37:24;;;;;;;19.35;12.85;;;;;;;;;;5071106;28;20055;-71
2022/10/21 03:39:50;;;;;;;23.17;13.15;;;;;;;;;;5070880;28;20484;-71
2022/10/21 03:42:17;;;;;;;17.38;12.68;;;;;;;;;;5071167;28;20048;-71
2022/10/21 03:44:43;;;;;;;16.38;12.93;;;;;;;;;;5074932;28;20067;-71
2022/10/21 03:47:09;;;;;;;18.48;13.05;;;;;;;;;;5074502;28;20041;-71
2022/10/21 03:49:36;;;;;;;17.13;13.13;;;;;;;;;;5074693;28;20122;-71
2022/10/21 03:52:02;;;;;;;20.52;14.25;;;;;;;;;;5073245;28;20040;-71
2022/10/21 03:54:29;;;;;;;15.80;12.77;;;;;;;;;;5074331;28;20056;-71
2022/10/21 03:56:55;;;;;;;18.92;13.27;;;;;;;;;;5074593;28;20056;-71
2022/10/21 03:59:21;;;;;;;22.88;13.65;;;;;;;;;;5074129;28;20053;-71
2022/10/21 04:01:48;;;;;;;19.48;14.35;;;;;;;;;;5074367;28;20060;-71
2022/10/21 04:04:14;;;;;;;19.80;13.38;;;;;;;;;;5074198;28;20056;-71
2022/10/21 04:06:40;;;;;;;21.50;13.90;;;;;;;;;;5074313;28;20400;-71
2022/10/21 04:09:07;;;;;;;20.52;14.13;;;;;;;;;;5074130;28;20053;-71
2022/10/21 04:11:34;;;;;;;20.75;13.85;;;;;;;;;;5072866;28;20047;-71
2022/10/21 04:14:00;;;;;;;22.05;15.10;;;;;;;;;;5072618;28;20045;-71
2022/10/21 04:16:27;;;;;;;27.77;15.80;;;;;;;;;;5073856;28;20048;-71
2022/10/21 04:18:53;;;;;;;19.77;14.95;;;;;;;;;;5074124;28;20052;-71
2022/10/21 04:21:19;;;;;;;22.90;15.32;;;;;;;;;;5074059;28;20059;-71
2022/10/21 04:23:46;;;;;;;25.27;14.80;;;;;;;;;;5073957;28;20076;-71
2022/10/21 04:26:12;;;;;;;20.90;15.80;;;;;;;;;;5073916;28;20049;-71
2022/10/21 04:28:38;;;;;;;21.85;15.32;;;;;;;;;;5073717;28;20044;-71
2022/10/21 04:31:05;;;;;;;21.70;14.07;;;;;;;;;;5073658;28;20504;-71
2022/10/21 04:33:31;;;;;;;18.00;14.32;;;;;;;;;;5073773;28;20083;-71
2022/10/21 04:35:58;;;;;;;21.17;13.50;;;;;;;;;;5073876;28;20049;-71
2022/10/21 04:38:24;;;;;;;23.00;15.30;;;;;;;;;;5073319;28;20052;-71
2022/10/21 04:40:55;;;;;;;19.10;14.38;;;;;;;;;;5072231;28;20088;-71
2022/10/21 04:43:21;;;;;;;21.38;13.60;;;;;;;;;;5073361;28;20048;-71
2022/10/21 04:45:47;;;;;;;21.55;12.32;;;;;;;;;;5073266;28;20063;-71
2022/10/21 04:48:14;;;;;;;20.20;12.52;;;;;;;;;;5073432;28;20058;-71
2022/10/21 04:50:40;;;;;;;20.10;11.90;;;;;;;;;;5073333;28;20048;-71
2022/10/21 04:53:06;;;;;;;17.40;11.25;;;;;;;;;;5073353;28;20048;-71
2022/10/21 04:55:33;;;;;;;19.90;11.45;;;;;;;;;;5072150;28;20040;-71
2022/10/21 04:57:59;;;;;;;18.13;10.60;;;;;;;;;;5073361;28;20045;-71
2022/10/21 05:00:25;;;;;;;14.02;8.93;;;;;;;;;;5073175;28;20048;-71
2022/10/21 05:02:52;;;;;;;15.73;8.88;;;;;;;;;;5073044;28;20055;-71
2022/10/21 05:05:18;;;;;;;14.93;8.80;;;;;;;;;;5072941;28;20052;-71
2022/10/21 05:07:44;;;;;;;17.35;9.43;;;;;;;;;;5073463;28;20423;-71
2022/10/21 05:10:11;;;;;;;14.82;8.32;;;;;;;;;;5072892;28;20045;-71
2022/10/21 05:12:37;;;;;;;14.52;7.70;;;;;;;;;;5072735;28;20037;-71
2022/10/21 05:15:04;;;;;;;18.83;7.20;;;;;;;;;;5073018;28;20041;-71
2022/10/21 05:17:30;;;;;;;12.95;6.70;;;;;;;;;;5071787;28;20056;-71
2022/10/21 05:19:56;;;;;;;10.35;5.90;;;;;;;;;;5072663;28;20048;-71
2022/10/21 05:22:23;;;;;;;9.73;5.55;;;;;;;;;;5071467;28;20063;-71
2022/10/21 05:24:49;;;;;;;10.75;5.63;;;;;;;;;;5058440;28;20050;-71
2022/10/21 05:27:15;;;;;;;14.82;6.25;;;;;;;;;;5072485;28;20488;-71
2022/10/21 05:29:42;;;;;;;14.32;5.28;;;;;;;;;;5072706;28;20412;-71
2022/10/21 05:32:08;;;;;;;11.82;4.47;;;;;;;;;;5072448;28;20458;-71
2022/10/21 05:34:34;;;;;;;11.15;4.85;;;;;;;;;;5072507;28;20075;-71
2022/10/21 05:37:01;;;;;;;13.40;4.05;;;;;;;;;;5072514;28;20052;-72
2022/10/21 05:39:27;;;;;;;15.45;4.00;;;;;;;;;;5072060;28;20060;-71
2022/10/21 05:41:54;;;;;;;11.13;3.50;;;;;;;;;;5072188;28;20044;-71
2022/10/21 05:44:20;;;;;;;9.63;3.10;;;;;;;;;;5072368;28;20105;-71
2022/10/21 05:46:46;;;;;;;13.52;3.40;;;;;;;;;;5072139;28;20055;-72
2022/10/21 05:49:13;;;;;;;11.90;3.25;;;;;;;;;;5072143;28;20060;-71
2022/10/21 05:51:39;;;;;;;14.18;3.50;;;;;;;;;;5072273;28;20048;-71
2022/10/21 05:54:06;;;;;;;14.93;3.22;;;;;;;;;;5072081;28;20040;-71
2022/10/21 05:56:32;;;;;;;13.95;3.53;;;;;;;;;;5072229;28;20050;-71
2022/10/21 05:58:58;;;;;;;14.63;3.60;;;;;;;;;;5070649;28;20048;-71
2022/10/21 06:01:25;;;;;;;14.35;3.28;;;;;;;;;;5070757;28;20059;-71
2022/10/21 06:03:51;;;;;;;13.50;3.50;;;;;;;;;;5071879;28;20052;-71
2022/10/21 06:06:18;;;;;;;16.70;3.67;;;;;;;;;;5071390;28;20053;-71
2022/10/21 06:08:44;;;;;;;11.55;3.35;;;;;;;;;;5070788;28;20124;-71
2022/10/21 06:11:12;;;;;;;17.23;2.97;;;;;;;;;;5071855;28;20456;-71
2022/10/21 06:13:38;;;;;;;12.65;3.35;;;;;;;;;;5072065;28;20066;-71
2022/10/21 06:16:06;;;;;;;10.10;3.38;;;;;;;;;;5071725;28;20050;-71
2022/10/21 06:18:32;;;;;;;13.38;2.72;;;;;;;;;;5071795;28;20140;-71
2022/10/21 06:20:58;;;;;;;15.50;3.22;;;;;;;;;;5072028;28;20048;-71
2022/10/21 06:23:25;;;;;;;13.77;3.40;;;;;;;;;;5048763;28;20558;-72
2022/10/21 06:25:54;;;;;;;14.52;3.58;;;;;;;;;;5057550;28;20054;-71
2022/10/21 06:28:20;;;;;;;14.70;3.42;;;;;;;;;;5070199;28;20041;-69
2022/10/21 06:30:47;;;;;;;14.73;2.70;;;;;;;;;;5071322;28;20044;-71
2022/10/21 06:33:13;;;;;;;12.00;2.70;;;;;;;;;;5071302;28;20065;-74
2022/10/21 06:35:40;;;;;;;12.80;3.25;;;;;;;;;;5070568;28;20051;-70
2022/10/21 06:38:06;;;;;;;11.73;3.05;;;;;;;;;;5070713;28;20135;-70
2022/10/21 06:40:32;;;;;;;15.10;3.20;;;;;;;;;;5071019;28;20044;-74
2022/10/21 06:42:59;;;;;;;11.63;3.28;;;;;;;;;;5070869;28;20533;-73
2022/10/21 06:45:25;;;;;;;13.65;3.05;;;;;;;;;;5070991;28;20040;-71
2022/10/21 06:47:51;;;;;;;11.77;2.92;;;;;;;;;;5071120;28;20102;-70
2022/10/21 06:50:18;;;;;;;15.90;2.90;;;;;;;;;;5067446;28;20489;-71
2022/10/21 06:52:47;;;;;;;14.35;3.08;;;;;;;;;;5059197;28;20051;-71
2022/10/21 06:55:13;;;;;;;20.45;3.30;;;;;;;;;;5069680;28;20048;-72
2022/10/21 06:57:40;;;;;;;13.93;2.92;;;;;;;;;;5070408;28;20522;-76
2022/10/21 07:00:07;;;;;;;12.65;2.78;;;;;;;;;;5070518;28;20144;-74
2022/10/21 07:02:33;;;;;;;11.90;3.22;;;;;;;;;;5070319;28;20506;-72
2022/10/21 07:05:00;;;;;;;15.32;3.47;;;;;;;;;;5070330;28;20104;-71
2022/10/21 07:07:26;;;;;;;20.13;2.97;;;;;;;;;;5065664;28;20266;-73
2022/10/21 07:09:56;;;;;;;17.20;3.65;;;;;;;;;;5052264;28;20067;-73
2022/10/21 07:12:23;;;;;;;17.85;2.90;;;;;;;;;;5050126;28;20048;-73
2022/10/21 07:14:50;;;;;;;18.08;3.10;;;;;;;;;;5069734;28;20059;-73
2022/10/21 07:17:16;;;;;;;11.57;3.17;;;;;;;;;;5069315;28;20055;-72
2022/10/21 07:19:43;;;;;;;16.13;3.42;;;;;;;;;;5066608;28;20504;-74
2022/10/21 07:22:10;;;;;;;21.75;4.15;;;;;;;;;;5053751;28;20063;-71
2022/10/21 07:24:36;;;;;;;17.25;3.47;;;;;;;;;;5054224;28;20055;-72
2022/10/21 07:27:02;;;;;;;16.27;3.15;;;;;;;;;;5054323;28;20053;-74
2022/10/21 07:29:29;;;;;;;14.20;3.53;;;;;;;;;;5053343;28;20055;-74
2022/10/21 07:31:55;;;;;;;19.52;3.35;;;;;;;;;;5074184;28;20399;-76
2022/10/21 07:34:22;;;;;;;18.73;4.03;;;;;;;;;;5074110;28;20499;-73
2022/10/21 07:36:51;;;;;;;21.77;3.45;;;;;;;;;;5072876;28;20075;-74
2022/10/21 07:39:19;;;;;;;11.48;2.58;;;;;;;;;;5055731;28;20061;-73
2022/10/21 07:41:47;;;;;;;17.75;2.65;;;;;;;;;;5053572;28;20053;-74
2022/10/21 07:44:14;;;;;;;21.42;3.55;;;;;;;;;;5053641;28;20059;-74
2022/10/21 07:46:41;;;;;;;13.55;2.55;;;;;;;;;;5062488;28;20052;-73
2022/10/21 07:49:08;;;;;;;13.80;2.27;;;;;;;;;;5064130;28;20045;-72
2022/10/21 07:51:34;;;;;;;16.57;3.40;;;;;;;;;;5064790;28;20044;-72
2022/10/21 07:54:01;;;;;;;12.82;2.83;;;;;;;;;;5061368;28;20049;-76
2022/10/21 07:56:28;;;;;;;15.98;3.13;;;;;;;;;;5066047;28;20055;-72
2022/10/21 07:58:55;;;;;;;16.95;3.13;;;;;;;;;;5059021;28;20128;-76
2022/10/21 08:01:21;;;;;;;19.55;3.65;;;;;;;;;;5058396;28;20049;-74
2022/10/21 08:03:48;;;;;;;20.75;2.85;;;;;;;;;;5070871;28;20075;-80
2022/10/21 08:06:15;;;;;;;15.98;2.58;;;;;;;;;;5073242;28;20046;-81
2022/10/21 08:08:42;;;;;;;;;;;;;;;;;;5054680;28;20047;-76
2022/10/21 08:11:08;;;;;;;9.68;2.20;;;;;;;;;;5062045;28;19924;-79
2022/10/21 08:13:35;;;;;;;13.25;1.95;;;;;;;;;;5065113;28;20090;-82
2022/10/21 08:16:03;;;;;;;9.40;1.48;;;;;;;;;;5073552;28;20054;-85
2022/10/21 08:18:29;;;;;;;9.38;1.85;;;;;;;;;;5073711;28;20053;-80
2022/10/21 08:20:56;;;;;;;13.82;1.85;;;;;;;;;;5073326;28;20059;-76
2022/10/21 08:23:23;;;;;;;10.95;2.17;;;;;;;;;;5067747;28;20484;-81
2022/10/21 08:25:50;;;;;;;17.30;3.50;;;;;;;;;;5064589;28;20141;-81
2022/10/21 08:28:17;;;;;;;;;;;;;;;;;;5072840;28;20045;-83
2022/10/21 08:30:43;;;;;;;16.98;2.88;;;;;;;;;;5072668;28;19928;-77
2022/10/21 08:33:10;;;;;;;14.13;2.78;;;;;;;;;;5072772;28;20052;-79
2022/10/21 08:35:37;;;;;;;15.52;2.42;;;;;;;;;;5072627;28;20503;-81
2022/10/21 08:38:04;;;;;;;16.70;3.07;;;;;;;;;;5072365;28;20056;-77
2022/10/21 08:40:37;;;;;;;18.55;2.67;;;;;;;;;;5058121;28;20049;-76
2022/10/21 08:43:27;;;;;;;20.85;3.50;;;;;;;;;;5052690;28;20055;-76
2022/10/21 08:46:06;;;;;;;23.42;4.03;;;;;;;;;;5041448;28;20418;-80
2022/10/21 08:48:38;;;;;;;20.90;3.33;;;;;;;;;;5072724;28;20479;-78
2022/10/21 08:51:05;;;;;;;19.15;3.50;;;;;;;;;;5072804;28;20045;-79
2022/10/21 08:53:36;;;;;;;14.40;3.03;;;;;;;;;;5071712;28;20049;-78
2022/10/21 08:56:05;;;;;;;17.25;3.15;;;;;;;;;;5072837;28;20044;-78
2022/10/21 08:58:32;;;;;;;21.48;3.40;;;;;;;;;;5072547;28;20049;-78
2022/10/21 09:01:02;;;;;;;14.55;2.80;;;;;;;;;;5071351;28;20048;-77
2022/10/21 09:03:54;;;;;;;16.00;2.60;;;;;;;;;;5072463;28;20048;-77
2022/10/21 09:06:39;;;;;;;23.80;2.90;;;;;;;;;;5065134;28;20504;-79
2022/10/21 09:09:12;;;;;;;17.92;2.97;;;;;;;;;;5070504;28;20131;-78
2022/10/21 09:11:57;;;;;;;17.00;2.42;;;;;;;;;;5072633;28;20084;-78
2022/10/21 09:14:26;;;;;;;14.80;2.35;;;;;;;;;;5058514;28;20049;-78
2022/10/21 09:16:53;;;;;;;12.38;2.70;;;;;;;;;;5072291;28;20040;-77
2022/10/21 09:19:32;;;;;;;17.55;2.92;;;;;;;;;;5072456;28;20055;-83
2022/10/21 09:21:58;;;;;;;13.07;2.53;;;;;;;;;;5072202;28;20518;-83
2022/10/21 09:24:45;;;;;;;13.23;2.60;;;;;;;;;;5071254;28;20052;-83
2022/10/21 09:27:11;;;;;;;9.23;1.80;;;;;;;;;;5070733;28;20056;-80
2022/10/21 09:29:46;;;;;;;10.77;1.85;;;;;;;;;;5072076;28;20048;-77
2022/10/21 09:32:14;;;;;;;12.63;2.05;;;;;;;;;;5055538;28;20485;-78
2022/10/21 09:34:49;;;;;;;15.10;1.90;;;;;;;;;;5071272;28;20052;-77
2022/10/21 09:37:21;;;;;;;13.02;2.95;;;;;;;;;;5071691;28;20049;-80
2022/10/21 09:39:50;;;;;;;15.10;3.15;;;;;;;;;;5071499;28;20062;-78
2022/10/21 09:42:16;;;;;;;23.08;3.50;;;;;;;;;;5071490;28;20056;-80
2022/10/21 09:45:03;;;;;;;18.88;3.53;;;;;;;;;;5071914;28;20067;-79
2022/10/21 09:47:31;;;;;;;15.88;4.13;;;;;;;;;;5071526;28;20484;-79
2022/10/21 09:49:59;;;;;;;24.23;4.22;;;;;;;;;;5071522;28;20048;-81
2022/10/21 09:52:34;;;;;;;23.23;4.28;;;;;;;;;;5071592;28;20488;-80
2022/10/21 09:55:02;;;;;;;28.65;5.15;;;;;;;;;;5071482;28;20132;-78
2022/10/21 09:57:43;;;;;;;31.17;3.88;;;;;;;;;;5071638;28;20415;-76
2022/10/21 10:00:10;;;;;;;27.80;4.28;;;;;;;;;;5071308;28;20046;-76
2022/10/21 10:02:42;;;;;;;25.58;4.55;;;;;;;;;;5071631;28;20056;-77
2022/10/21 10:05:27;;;;;;;27.27;4.50;;;;;;;;;;5070153;28;20135;-77
2022/10/21 10:07:53;;;;;;;26.92;4.38;;;;;;;;;;5050196;28;20053;-77
2022/10/21 10:10:46;;;;;;;22.25;3.85;;;;;;;;;;5067975;28;20131;-76
2022/10/21 10:13:16;;;;;;;25.27;4.18;;;;;;;;;;5062925;28;20056;-83
2022/10/21 10:15:43;;;;;;;17.92;3.63;;;;;;;;;;5063771;28;20045;-77
2022/10/21 10:18:27;;;;;;;15.82;3.35;;;;;;;;;;5071195;28;20045;-77
2022/10/21 10:21:04;;;;;;;17.00;2.97;;;;;;;;;;5071266;28;20053;-77
2022/10/21 10:23:40;;;;;;;15.80;2.93;;;;;;;;;;5058756;28;20066;-81
2022/10/21 10:26:07;;;;;;;19.27;3.53;;;;;;;;;;5045741;28;20059;-86
2022/10/21 10:28:33;;;;;;;21.20;3.75;;;;;;;;;;5049411;28;20041;-76
2022/10/21 10:31:00;;;;;;;20.10;4.15;;;;;;;;;;5064216;28;20103;-73
2022/10/21 10:33:31;;;;;;;21.10;2.90;;;;;;;;;;5071294;28;20045;-75
2022/10/21 10:35:58;;;;;;;21.05;3.30;;;;;;;;;;5070993;28;20475;-75
2022/10/21 10:38:25;;;;;;;;;;;;;;;;;;5060486;28;20060;-74
2022/10/21 10:40:51;;;;;;;21.73;3.72;;;;;;;;;;5068845;28;19920;-74
2022/10/21 10:43:26;;;;;;;22.45;3.85;;;;;;;;;;5069342;28;20052;-76
2022/10/21 10:45:55;;;;;;;26.88;4.65;;;;;;;;;;5068766;28;20522;-76
2022/10/21 10:48:26;;;;;;;17.58;3.53;;;;;;;;;;5057538;28;20057;-79
2022/10/21 10:50:52;;;;;;;15.55;2.30;;;;;;;;;;5070240;28;20062;-77
2022/10/21 10:53:24;;;;;;;18.73;2.97;;;;;;;;;;5074310;28;20044;-77
2022/10/21 10:55:54;;;;;;;16.35;2.92;;;;;;;;;;5075599;28;20048;-76
2022/10/21 10:58:22;;;;;;;18.50;2.97;;;;;;;;;;5074424;28;20063;-76
2022/10/21 11:00:54;;;;;;;16.20;2.75;;;;;;;;;;5075339;28;20040;-77
2022/10/21 11:03:20;;;;;;;;;;;;;;;;;;5075824;28;20068;-77
2022/10/21 11:05:52;;;;;;;13.00;2.42;;;;;;;;;;5075645;28;19959;-77
2022/10/21 11:08:27;;;;;;;12.43;1.98;;;;;;;;;;5067560;28;20055;-76
2022/10/21 11:11:00;;;;;;;12.75;2.17;;;;;;;;;;5071775;28;20499;-77
2022/10/21 11:13:32;;;;;;;11.68;2.13;;;;;;;;;;5075843;28;20063;-77
2022/10/21 11:16:17;;;;;;;13.48;2.15;;;;;;;;;;5074057;28;20051;-76
2022/10/21 11:18:47;;;;;;;10.48;2.13;;;;;;;;;;5075340;28;20049;-76
2022/10/21 11:21:32;;;;;;;10.13;2.00;;;;;;;;;;5074988;28;20135;-76
2022/10/21 11:24:23;;;;;;;9.13;2.00;;;;;;;;;;5075357;28;20052;-76
2022/10/21 11:27:01;;;;;;;8.60;1.63;;;;;;;;;;5069371;28;20059;-76
2022/10/21 11:29:27;;;;;;;13.45;1.70;;;;;;;;;;5068513;28;20047;-76
2022/10/21 11:32:12;;;;;;;12.30;1.63;;;;;;;;;;5073849;28;20045;-76
2022/10/21 11:34:57;;;;;;;7.78;1.35;;;;;;;;;;5074822;28;20048;-76
2022/10/21 11:37:24;;;;;;;5.82;1.10;;;;;;;;;;5075128;28;20051;-77
2022/10/21 11:40:09;;;;;;;5.50;1.08;;;;;;;;;;5074289;28;20059;-76
2022/10/21 11:42:42;;;;;;;9.38;1.27;;;;;;;;;;5074668;28;20403;-76
2022/10/21 11:45:24;;;;;;;5.70;1.33;;;;;;;;;;5060768;28;20051;-75
2022/10/21 11:47:55;;;;;;;8.40;1.50;;;;;;;;;;5074532;28;20083;-75
2022/10/21 11:50:22;;;;;;;4.90;0.80;;;;;;;;;;5074489;28;20037;-74
2022/10/21 11:52:48;;;;;;;7.82;1.30;;;;;;;;;;5074778;28;20044;-73
2022/10/21 11:55:23;;;;;;;6.93;1.40;;;;;;;;;;5074502;28;20049;-73
2022/10/21 11:57:53;;;;;;;8.70;1.67;;;;;;;;;;5055640;28;20049;-73
2022/10/21 12:00:21;;;;;;;9.57;2.08;;;;;;;;;;5060851;28;20423;-71
2022/10/21 12:03:06;;;;;;;6.88;1.35;;;;;;;;;;5073888;28;20055;-72
2022/10/21 12:05:41;;;;;;;7.57;1.85;;;;;;;;;;5072235;28;20045;-72
2022/10/21 12:08:11;;;;;;;9.88;1.90;;;;;;;;;;5062584;28;20045;-71
2022/10/21 12:10:51;;;;;;;10.57;1.98;;;;;;;;;;5067765;28;20045;-71
2022/10/21 12:13:26;;;;;;;10.18;1.98;;;;;;;;;;5073234;28;20051;-71
2022/10/21 12:15:55;;;;;;;13.02;2.22;;;;;;;;;;5073747;28;20488;-72
2022/10/21 12:18:22;;;;;;;15.50;2.58;;;;;;;;;;5072391;28;20051;-70
2022/10/21 12:20:50;;;;;;;12.20;2.45;;;;;;;;;;5073531;28;20053;-72
2022/10/21 12:23:19;;;;;;;21.58;3.45;;;;;;;;;;5073196;28;20511;-77
2022/10/21 12:25:46;;;;;;;14.90;2.78;;;;;;;;;;5071206;28;20300;-78
2022/10/21 12:28:15;;;;;;;14.10;2.65;;;;;;;;;;5073169;28;20488;-81
2022/10/21 12:30:45;;;;;;;21.77;3.25;;;;;;;;;;5073380;28;20136;-80
2022/10/21 12:33:33;;;;;;;18.52;3.00;;;;;;;;;;5071754;28;20045;-72
2022/10/21 12:36:38;;;;;;;19.13;3.63;;;;;;;;;;5073143;28;20045;-73
2022/10/21 12:39:24;;;;;;;15.60;3.08;;;;;;;;;;5072770;28;20500;-88
2022/10/21 12:42:02;;;;;;;16.33;3.10;;;;;;;;;;5065833;28;20057;-79
2022/10/21 12:44:29;;;;;;;25.48;4.22;;;;;;;;;;5073904;28;20072;-83
2022/10/21 12:46:59;;;;;;;19.13;3.60;;;;;;;;;;5073021;28;20143;-86
2022/10/21 12:49:33;;;;;;;21.42;3.88;;;;;;;;;;5073092;28;20435;-82
2022/10/21 12:52:03;;;;;;;16.75;3.78;;;;;;;;;;5073321;28;20045;-84
2022/10/21 12:54:33;;;;;;;30.67;5.15;;;;;;;;;;5073461;28;20040;-78
2022/10/21 12:57:01;;;;;;;19.38;3.03;;;;;;;;;;5072860;28;20496;-81
2022/10/21 12:59:32;;;;;;;13.20;2.65;;;;;;;;;;5072655;28;20541;-77
2022/10/21 13:02:04;;;;;;;18.90;3.63;;;;;;;;;;5071646;28;20049;-78
2022/10/21 13:04:31;;;;;;;24.17;3.55;;;;;;;;;;5072835;28;20052;-80
2022/10/21 13:06:57;;;;;;;23.80;5.05;;;;;;;;;;5071499;28;20075;-77
2022/10/21 13:09:56;;;;;;;25.92;4.50;;;;;;;;;;5071548;28;20412;-77
2022/10/21 13:12:23;;;;;;;29.85;4.22;;;;;;;;;;5038608;28;20051;-79
2022/10/21 13:14:51;;;;;;;28.92;5.25;;;;;;;;;;5053695;28;20041;-74
2022/10/21 13:17:17;;;;;;;;;;;;;;;;;;5072731;28;20490;-74
2022/10/21 13:19:43;;;;;;;22.92;4.03;;;;;;;;;;5071357;28;19930;-75
2022/10/21 13:22:11;;;;;;;21.25;4.10;;;;;;;;;;5072323;28;20055;-77
2022/10/21 13:24:38;;;;;;;19.00;3.60;;;;;;;;;;5072354;28;20051;-77
2022/10/21 13:27:24;;;;;;;26.23;3.70;;;;;;;;;;5070332;28;20385;-79
2022/10/21 13:29:50;;;;;;;21.40;3.58;;;;;;;;;;5063752;28;20049;-75
2022/10/21 13:32:17;;;;;;;18.17;3.20;;;;;;;;;;5070510;28;20048;-72
2022/10/21 13:34:49;;;;;;;10.95;2.38;;;;;;;;;;5072237;28;20053;-72
2022/10/21 13:37:24;;;;;;;15.35;2.22;;;;;;;;;;5065096;28;20471;-72
2022/10/21 13:39:51;;;;;;;10.38;2.13;;;;;;;;;;5062895;28;20071;-75
2022/10/21 13:42:18;;;;;;;10.65;1.70;;;;;;;;;;5071741;28;20051;-75
2022/10/21 13:44:50;;;;;;;8.90;1.20;;;;;;;;;;5071780;28;20080;-74
2022/10/21 13:47:28;;;;;;;7.18;1.42;;;;;;;;;;5071618;28;20059;-70
2022/10/21 13:50:15;;;;;;;7.90;1.40;;;;;;;;;;5071630;28;20048;-71
2022/10/21 13:52:43;;;;;;;14.93;1.80;;;;;;;;;;5070035;28;20046;-74
2022/10/21 13:55:16;;;;;;;7.85;1.10;;;;;;;;;;5070283;28;20484;-71
2022/10/21 13:57:45;;;;;;;7.97;1.40;;;;;;;;;;5071744;28;20056;-71
2022/10/21 14:00:19;;;;;;;13.23;1.45;;;;;;;;;;5071460;28;20067;-72
2022/10/21 14:02:50;;;;;;;5.35;1.13;;;;;;;;;;5071317;28;20515;-71
2022/10/21 14:05:33;;;;;;;4.63;0.80;;;;;;;;;;5071603;28;20052;-70
2022/10/21 14:08:00;;;;;;;7.65;1.30;;;;;;;;;;5071501;28;20132;-74
2022/10/21 14:10:27;;;;;;;3.53;0.75;;;;;;;;;;5071701;28;20066;-71
2022/10/21 14:12:55;;;;;;;4.30;0.70;;;;;;;;;;5071601;28;20045;-71
2022/10/21 14:15:27;;;;;;;5.22;0.90;;;;;;;;;;5071351;28;20052;-70
2022/10/21 14:17:56;;;;;;;9.32;1.27;;;;;;;;;;5071236;28;20049;-70
2022/10/21 14:20:27;;;;;;;5.57;0.80;;;;;;;;;;5071372;28;20045;-74
2022/10/21 14:22:54;;;;;;;7.45;1.48;;;;;;;;;;5070934;28;20402;-74
2022/10/21 14:25:20;;;;;;;3.93;0.60;;;;;;;;;;5069616;28;20048;-71
2022/10/21 14:27:47;;;;;;;5.90;0.90;;;;;;;;;;5069376;28;20277;-71
2022/10/21 14:30:19;;;;;;;7.60;1.13;;;;;;;;;;5070079;28;20061;-71
2022/10/21 14:32:46;;;;;;;7.03;1.27;;;;;;;;;;5071058;28;20048;-71
2022/10/21 14:35:13;;;;;;;7.43;1.25;;;;;;;;;;5053886;28;20059;-72
2022/10/21 14:37:44;;;;;;;6.68;1.45;;;;;;;;;;5070012;28;20074;-70
2022/10/21 14:40:11;;;;;;;7.80;1.70;;;;;;;;;;5071587;28;20063;-70
2022/10/21 14:42:38;;;;;;;;;;;;;;;;;;5071439;28;20131;-70
2022/10/21 14:45:05;;;;;;;18.65;2.78;;;;;;;;;;5071304;28;19970;-70
2022/10/21 14:47:31;;;;;;;21.02;3.13;;;;;;;;;;5071134;28;20081;-71